createdAt,value
2023-10-20T00:00:43.216Z,14.98
2023-10-20T00:03:10.386Z,14.96
2023-10-20T00:05:37.674Z,14.85
2023-10-20T00:08:05.079Z,14.81
2023-10-20T00:10:35.032Z,14.84
2023-10-20T00:13:01.710Z,14.86
2023-10-20T00:15:29.420Z,14.80
2023-10-20T00:17:56.015Z,14.85
2023-10-20T00:20:22.699Z,14.83
2023-10-20T00:22:49.660Z,14.87
2023-10-20T00:25:16.212Z,14.79
2023-10-20T00:27:42.794Z,14.70
2023-10-20T00:30:10.630Z,14.73
2023-10-20T00:32:41.102Z,14.78
2023-10-20T00:35:11.450Z,14.75
2023-10-20T00:37:38.234Z,14.78
2023-10-20T00:40:10.158Z,14.82
2023-10-20T00:42:37.167Z,14.83
2023-10-20T00:45:05.281Z,14.80
2023-10-20T00:47:32.933Z,14.80
2023-10-20T00:50:00.528Z,14.68
2023-10-20T00:52:30.071Z,14.62
2023-10-20T00:54:57.447Z,14.72
2023-10-20T00:57:24.887Z,14.75
2023-10-20T00:59:51.675Z,14.68
2023-10-20T01:02:18.409Z,14.63
2023-10-20T01:04:45.604Z,14.58
2023-10-20T01:07:12.374Z,14.65
2023-10-20T01:09:38.863Z,14.68
2023-10-20T01:12:05.756Z,14.69
2023-10-20T01:14:32.629Z,14.73
2023-10-20T01:16:59.398Z,14.72
2023-10-20T01:19:26.050Z,14.56
2023-10-20T01:21:53.808Z,14.61
2023-10-20T01:24:21.174Z,14.72
2023-10-20T01:26:47.743Z,14.75
2023-10-20T01:29:14.411Z,14.79
2023-10-20T01:31:41.075Z,14.80
2023-10-20T01:34:07.630Z,14.78
2023-10-20T01:36:34.755Z,14.76
2023-10-20T01:39:01.335Z,14.74
2023-10-20T01:41:27.964Z,14.76
2023-10-20T01:43:54.681Z,14.84
2023-10-20T01:46:50.637Z,14.85
2023-10-20T01:49:37.496Z,14.89
2023-10-20T01:52:24.395Z,14.87
2023-10-20T01:55:10.884Z,14.83
2023-10-20T01:57:57.623Z,14.80
2023-10-20T02:00:45.276Z,14.79
2023-10-20T02:03:12.075Z,14.79
2023-10-20T02:05:38.814Z,14.77
2023-10-20T02:08:05.904Z,14.79
2023-10-20T02:10:32.518Z,14.77
2023-10-20T02:12:58.969Z,14.76
2023-10-20T02:15:25.719Z,14.80
2023-10-20T02:17:52.377Z,14.81
2023-10-20T02:20:22.292Z,14.79
2023-10-20T02:22:53.945Z,14.79
2023-10-20T02:25:21.338Z,14.81
2023-10-20T02:27:48.431Z,14.77
2023-10-20T02:30:16.740Z,14.77
2023-10-20T02:32:44.066Z,14.76
2023-10-20T02:35:10.848Z,14.73
2023-10-20T02:37:37.760Z,14.72
2023-10-20T02:40:07.753Z,14.73
2023-10-20T02:42:34.573Z,14.80
2023-10-20T02:45:01.522Z,14.85
2023-10-20T02:47:28.047Z,14.85
2023-10-20T02:49:56.584Z,14.83
2023-10-20T02:52:26.808Z,14.83
2023-10-20T02:54:54.880Z,14.81
2023-10-20T02:57:21.989Z,14.78
2023-10-20T02:59:49.278Z,14.82
2023-10-20T03:02:19.955Z,14.79
2023-10-20T03:04:47.024Z,14.75
2023-10-20T03:07:13.892Z,14.75
2023-10-20T03:09:40.614Z,14.77
2023-10-20T03:12:07.181Z,14.72
2023-10-20T03:14:34.982Z,14.69
2023-10-20T03:17:02.064Z,14.69
2023-10-20T03:19:28.761Z,14.70
2023-10-20T03:21:55.614Z,14.68
2023-10-20T03:24:22.135Z,14.64
2023-10-20T03:26:49.417Z,14.64
2023-10-20T03:29:16.352Z,14.69
2023-10-20T03:31:44.476Z,14.68
2023-10-20T03:34:11.162Z,14.68
2023-10-20T03:36:37.655Z,14.70
2023-10-20T03:39:15.774Z,14.67
2023-10-20T03:41:42.560Z,14.67
2023-10-20T03:44:09.394Z,14.66
2023-10-20T03:46:45.056Z,14.66
2023-10-20T03:49:11.839Z,14.70
2023-10-20T03:51:39.060Z,14.67
2023-10-20T03:54:06.680Z,14.72
2023-10-20T03:56:36.525Z,14.69
2023-10-20T03:59:03.211Z,14.78
2023-10-20T04:01:29.877Z,14.73
2023-10-20T04:03:57.177Z,14.75
2023-10-20T04:06:23.812Z,14.72
2023-10-20T04:08:50.635Z,14.74
2023-10-20T04:11:17.174Z,14.75
2023-10-20T04:13:43.778Z,14.69
2023-10-20T04:16:14.632Z,14.71
2023-10-20T04:18:42.321Z,14.70
2023-10-20T04:21:12.363Z,14.75
2023-10-20T04:23:39.628Z,14.73
2023-10-20T04:26:17.036Z,14.71
2023-10-20T04:28:49.126Z,14.70
2023-10-20T04:31:37.434Z,14.76
2023-10-20T04:34:23.968Z,14.80
2023-10-20T04:37:09.308Z,14.74
2023-10-20T04:39:54.946Z,14.74
2023-10-20T04:42:36.702Z,14.65
2023-10-20T04:45:18.988Z,14.69
2023-10-20T04:48:15.118Z,14.72
2023-10-20T04:51:09.913Z,14.67
2023-10-20T04:53:36.592Z,14.68
2023-10-20T04:56:15.803Z,14.72
2023-10-20T04:58:55.415Z,14.71
2023-10-20T05:01:31.190Z,14.74
2023-10-20T05:04:11.225Z,14.71
2023-10-20T05:06:44.770Z,14.70
2023-10-20T05:09:15.463Z,14.67
2023-10-20T05:11:42.817Z,14.61
2023-10-20T05:14:10.464Z,14.64
2023-10-20T05:16:37.253Z,14.63
2023-10-20T05:19:05.451Z,14.61
2023-10-20T05:21:35.882Z,14.60
2023-10-20T05:24:05.183Z,14.60
2023-10-20T05:26:32.983Z,14.59
2023-10-20T05:29:02.546Z,14.57
2023-10-20T05:31:31.015Z,14.58
2023-10-20T05:33:58.113Z,14.60
2023-10-20T05:36:24.657Z,14.65
2023-10-20T05:38:51.455Z,14.66
2023-10-20T05:41:18.041Z,14.63
2023-10-20T05:43:44.914Z,14.65
2023-10-20T05:46:20.611Z,14.70
2023-10-20T05:48:48.525Z,14.70
2023-10-20T05:51:15.188Z,14.70
2023-10-20T05:53:41.859Z,14.71
2023-10-20T05:56:10.859Z,14.74
2023-10-20T05:58:39.154Z,14.72
2023-10-20T06:01:12.588Z,14.69
2023-10-20T06:03:39.526Z,14.66
2023-10-20T06:06:06.276Z,14.62
2023-10-20T06:08:32.886Z,14.56
2023-10-20T06:11:04.333Z,14.50
2023-10-20T06:13:36.510Z,14.50
2023-10-20T06:16:11.640Z,14.49
2023-10-20T06:18:40.332Z,14.50
2023-10-20T06:21:11.648Z,14.53
2023-10-20T06:23:38.255Z,14.56
2023-10-20T06:26:04.944Z,14.52
2023-10-20T06:28:31.594Z,14.53
2023-10-20T06:31:01.925Z,14.49
2023-10-20T06:33:35.887Z,14.51
2023-10-20T06:36:12.175Z,14.54
2023-10-20T06:38:47.779Z,14.53
2023-10-20T06:41:14.367Z,14.54
2023-10-20T06:43:41.645Z,14.53
2023-10-20T06:46:08.124Z,14.50
2023-10-20T06:48:34.974Z,14.47
2023-10-20T06:51:01.514Z,14.52
2023-10-20T06:53:29.667Z,14.57
2023-10-20T06:56:13.279Z,14.58
2023-10-20T06:58:42.596Z,14.65
2023-10-20T07:01:09.513Z,14.71
2023-10-20T07:03:36.233Z,14.84
2023-10-20T07:06:08.483Z,15.00
2023-10-20T07:08:35.351Z,15.07
2023-10-20T07:11:03.592Z,15.21
2023-10-20T07:13:30.258Z,15.36
2023-10-20T07:15:58.744Z,15.65
2023-10-20T07:18:25.506Z,15.68
2023-10-20T07:20:58.164Z,15.47
2023-10-20T07:23:25.638Z,15.44
2023-10-20T07:25:52.248Z,15.41
2023-10-20T07:28:18.763Z,15.41
2023-10-20T07:30:45.247Z,15.51
2023-10-20T07:33:12.053Z,15.54
2023-10-20T07:35:39.770Z,15.50
2023-10-20T07:38:06.667Z,15.41
2023-10-20T07:40:36.014Z,15.44
2023-10-20T07:43:04.727Z,15.38
2023-10-20T07:45:32.562Z,15.40
2023-10-20T07:48:01.916Z,15.41
2023-10-20T07:50:29.270Z,15.44
2023-10-20T07:52:56.478Z,15.53
2023-10-20T07:55:23.111Z,15.58
2023-10-20T07:57:49.738Z,15.67
2023-10-20T08:00:16.272Z,15.67
2023-10-20T08:02:43.065Z,15.74
2023-10-20T08:05:09.949Z,15.74
2023-10-20T08:07:36.880Z,15.78
2023-10-20T08:10:03.770Z,15.73
2023-10-20T08:12:30.247Z,15.77
2023-10-20T08:14:57.408Z,15.81
2023-10-20T08:17:28.324Z,15.86
2023-10-20T08:19:56.607Z,15.91
2023-10-20T08:22:24.609Z,15.97
2023-10-20T08:24:52.347Z,16.00
2023-10-20T08:27:19.858Z,16.02
2023-10-20T08:29:49.134Z,16.03
2023-10-20T08:32:16.309Z,16.03
2023-10-20T08:34:42.898Z,16.02
2023-10-20T08:37:09.356Z,16.00
2023-10-20T08:39:36.147Z,16.00
2023-10-20T08:42:03.507Z,16.08
2023-10-20T08:44:31.432Z,16.16
2023-10-20T08:46:59.164Z,16.16
2023-10-20T08:49:26.356Z,16.22
2023-10-20T08:51:55.171Z,16.21
2023-10-20T08:54:22.545Z,16.23
2023-10-20T08:56:49.176Z,16.23
2023-10-20T08:59:15.902Z,16.29
2023-10-20T09:01:43.381Z,16.29
2023-10-20T09:04:21.277Z,16.34
2023-10-20T09:06:47.896Z,16.27
2023-10-20T09:09:15.394Z,16.18
2023-10-20T09:11:42.079Z,15.87
2023-10-20T09:14:08.846Z,15.76
2023-10-20T09:16:35.659Z,15.57
2023-10-20T09:19:04.697Z,15.65
2023-10-20T09:21:31.780Z,15.58
2023-10-20T09:24:06.228Z,15.45
2023-10-20T09:26:35.877Z,15.32
2023-10-20T09:29:09.316Z,15.25
2023-10-20T09:31:38.488Z,15.44
2023-10-20T09:34:08.906Z,15.48
2023-10-20T09:36:36.766Z,15.50
2023-10-20T09:39:06.580Z,15.64
2023-10-20T09:41:36.183Z,15.89
2023-10-20T09:44:08.025Z,15.94
2023-10-20T09:47:00.808Z,16.02
2023-10-20T09:49:28.578Z,16.04
2023-10-20T09:51:58.255Z,16.02
2023-10-20T09:54:29.225Z,16.04
2023-10-20T09:57:00.838Z,16.03
2023-10-20T09:59:29.176Z,16.16
2023-10-20T10:01:57.603Z,16.27
2023-10-20T10:04:31.946Z,16.09
2023-10-20T10:07:06.084Z,16.18
2023-10-20T10:09:38.354Z,16.32
2023-10-20T10:12:15.302Z,16.02
2023-10-20T10:14:42.082Z,16.17
2023-10-20T10:17:10.413Z,16.28
2023-10-20T10:19:50.017Z,16.53
2023-10-20T10:22:17.001Z,16.67
2023-10-20T10:24:55.537Z,16.68
2023-10-20T10:27:25.845Z,16.77
2023-10-20T10:29:54.764Z,16.57
2023-10-20T10:32:23.639Z,16.74
2023-10-20T10:34:57.903Z,16.73
2023-10-20T10:37:36.314Z,16.52
2023-10-20T10:40:12.037Z,16.56
2023-10-20T10:42:46.493Z,16.48
2023-10-20T10:45:24.871Z,16.54
2023-10-20T10:48:03.571Z,16.72
2023-10-20T10:50:30.547Z,16.60
2023-10-20T10:52:57.310Z,16.69
2023-10-20T10:55:25.813Z,16.60
2023-10-20T10:57:52.437Z,16.54
2023-10-20T11:00:19.772Z,16.60
2023-10-20T11:02:47.593Z,16.78
2023-10-20T11:05:16.298Z,16.82
2023-10-20T11:08:18.611Z,16.86
2023-10-20T11:10:47.394Z,17.02
2023-10-20T11:13:17.253Z,17.02
2023-10-20T11:15:44.433Z,17.10
2023-10-20T11:18:13.951Z,17.02
2023-10-20T11:20:43.495Z,17.17
2023-10-20T11:23:12.438Z,17.37
2023-10-20T11:25:41.820Z,17.46
2023-10-20T11:28:09.100Z,17.44
2023-10-20T11:30:42.850Z,17.30
2023-10-20T11:33:15.596Z,17.34
2023-10-20T11:35:43.604Z,17.20
2023-10-20T11:38:10.438Z,17.08
2023-10-20T11:40:36.934Z,17.02
2023-10-20T11:43:04.448Z,16.92
2023-10-20T11:45:31.004Z,16.99
2023-10-20T11:47:57.597Z,17.03
2023-10-20T11:50:24.807Z,16.95
2023-10-20T11:52:51.772Z,16.93
2023-10-20T11:55:19.443Z,16.98
2023-10-20T11:57:46.080Z,16.92
2023-10-20T12:00:14.881Z,16.86
2023-10-20T12:02:42.230Z,16.72
2023-10-20T12:05:09.835Z,16.77
2023-10-20T12:07:37.411Z,16.82
2023-10-20T12:10:07.431Z,17.02
2023-10-20T12:12:35.047Z,17.19
2023-10-20T12:15:02.103Z,17.20
2023-10-20T12:17:29.848Z,17.02
2023-10-20T12:19:56.809Z,16.95
2023-10-20T12:22:24.135Z,17.10
2023-10-20T12:24:51.574Z,17.14
2023-10-20T12:27:18.590Z,17.53
2023-10-20T12:29:45.170Z,17.71
2023-10-20T12:32:14.138Z,17.72
2023-10-20T12:34:41.630Z,17.63
2023-10-20T12:37:09.040Z,17.72
2023-10-20T12:39:35.718Z,17.61
2023-10-20T12:42:06.406Z,17.75
2023-10-20T12:44:37.187Z,17.89
2023-10-20T12:47:04.501Z,17.80
2023-10-20T12:49:32.671Z,17.80
2023-10-20T12:52:00.465Z,17.73
2023-10-20T12:54:27.477Z,17.66
2023-10-20T12:56:54.059Z,17.69
2023-10-20T12:59:20.972Z,17.70
2023-10-20T13:01:48.117Z,17.73
2023-10-20T13:04:15.107Z,17.79
2023-10-20T13:06:58.044Z,17.84
2023-10-20T13:09:27.271Z,17.85
2023-10-20T13:11:54.136Z,17.81
2023-10-20T13:14:20.901Z,17.83
2023-10-20T13:16:47.757Z,17.86
2023-10-20T13:19:15.173Z,17.82
2023-10-20T13:21:42.317Z,17.83
2023-10-20T13:24:09.103Z,17.80
2023-10-20T13:26:35.670Z,17.74
2023-10-20T13:29:02.154Z,17.84
2023-10-20T13:31:28.717Z,17.88
2023-10-20T13:33:56.142Z,17.91
2023-10-20T13:36:22.905Z,17.88
2023-10-20T13:38:49.648Z,17.80
2023-10-20T13:41:16.488Z,17.76
2023-10-20T13:43:43.076Z,17.80
2023-10-20T13:46:11.086Z,17.88
2023-10-20T13:48:38.268Z,17.88
2023-10-20T13:51:05.136Z,18.07
2023-10-20T13:53:31.907Z,18.03
2023-10-20T13:55:58.520Z,18.08
2023-10-20T13:58:25.293Z,18.05
2023-10-20T14:00:52.492Z,17.96
2023-10-20T14:03:19.356Z,17.83
2023-10-20T14:05:56.058Z,17.73
2023-10-20T14:08:24.242Z,17.61
2023-10-20T14:10:51.576Z,17.61
2023-10-20T14:13:18.546Z,17.61
2023-10-20T14:15:45.725Z,17.46
2023-10-20T14:18:12.649Z,17.43
2023-10-20T14:20:40.366Z,17.40
2023-10-20T14:23:07.497Z,17.36
2023-10-20T14:25:34.220Z,17.37
2023-10-20T14:28:00.814Z,17.38
2023-10-20T14:30:27.356Z,17.31
2023-10-20T14:32:54.049Z,17.26
2023-10-20T14:35:20.841Z,17.22
2023-10-20T14:37:47.326Z,17.33
2023-10-20T14:40:14.113Z,17.31
2023-10-20T14:42:40.757Z,17.25
2023-10-20T14:45:08.100Z,17.19
2023-10-20T14:47:34.918Z,17.18
2023-10-20T14:50:01.470Z,17.12
2023-10-20T14:52:30.250Z,17.06
2023-10-20T14:54:57.002Z,17.04
2023-10-20T14:57:24.424Z,17.01
2023-10-20T14:59:50.985Z,16.96
2023-10-20T15:02:17.568Z,16.93
2023-10-20T15:04:44.187Z,16.94
2023-10-20T15:07:10.704Z,16.98
2023-10-20T15:09:38.034Z,16.97
2023-10-20T15:12:04.842Z,16.94
2023-10-20T15:14:32.019Z,16.93
2023-10-20T15:16:58.585Z,16.88
2023-10-20T15:19:25.422Z,16.84
2023-10-20T15:21:53.645Z,16.83
2023-10-20T15:24:20.228Z,16.83
2023-10-20T15:26:47.719Z,16.71
2023-10-20T15:29:14.246Z,16.71
2023-10-20T15:31:41.122Z,16.68
2023-10-20T15:34:07.591Z,16.68
2023-10-20T15:36:47.587Z,16.63
2023-10-20T15:39:14.248Z,16.55
2023-10-20T15:41:40.793Z,16.54
2023-10-20T15:44:11.037Z,16.49
2023-10-20T15:46:37.850Z,16.52
2023-10-20T15:49:07.348Z,16.45
2023-10-20T15:51:34.005Z,16.49
2023-10-20T15:54:00.801Z,16.42
2023-10-20T15:56:29.010Z,16.40
2023-10-20T15:58:56.060Z,16.44
2023-10-20T16:01:23.275Z,16.46
2023-10-20T16:03:50.998Z,16.52
2023-10-20T16:06:17.723Z,16.46
2023-10-20T16:08:44.212Z,16.33
2023-10-20T16:11:11.381Z,16.28
2023-10-20T16:13:38.178Z,16.27
2023-10-20T16:16:04.835Z,16.28
2023-10-20T16:18:31.645Z,16.19
2023-10-20T16:20:58.227Z,16.22
2023-10-20T16:23:25.148Z,16.17
2023-10-20T16:25:51.635Z,16.15
2023-10-20T16:28:18.198Z,16.11
2023-10-20T16:30:44.721Z,16.07
2023-10-20T16:33:11.691Z,15.97
2023-10-20T16:35:38.308Z,15.93
2023-10-20T16:38:04.742Z,15.93
2023-10-20T16:40:32.500Z,15.90
2023-10-20T16:42:59.200Z,15.90
2023-10-20T16:45:25.727Z,15.84
2023-10-20T16:47:52.580Z,15.85
2023-10-20T16:50:19.369Z,15.72
2023-10-20T16:52:46.184Z,15.71
2023-10-20T16:55:12.862Z,15.69
2023-10-20T16:57:39.511Z,15.68
2023-10-20T17:00:07.188Z,15.61
2023-10-20T17:02:34.179Z,15.59
2023-10-20T17:05:01.017Z,15.56
2023-10-20T17:07:27.495Z,15.52
2023-10-20T17:09:54.377Z,15.51
2023-10-20T17:12:21.566Z,15.46
2023-10-20T17:14:48.504Z,15.46
2023-10-20T17:17:15.592Z,15.48
2023-10-20T17:19:42.164Z,15.45
2023-10-20T17:22:08.954Z,15.48
2023-10-20T17:24:35.748Z,15.47
2023-10-20T17:27:04.151Z,15.41
2023-10-20T17:29:31.014Z,15.42
2023-10-20T17:31:57.643Z,15.32
2023-10-20T17:34:24.575Z,15.36
2023-10-20T17:36:51.842Z,15.33
2023-10-20T17:39:19.625Z,15.33
2023-10-20T17:41:46.743Z,15.34
2023-10-20T17:44:13.545Z,15.35
2023-10-20T17:46:41.216Z,15.27
2023-10-20T17:49:08.214Z,15.34
2023-10-20T17:51:35.961Z,15.33
2023-10-20T17:54:02.621Z,15.28
2023-10-20T17:56:29.208Z,15.33
2023-10-20T17:58:56.247Z,15.33
2023-10-20T18:01:23.177Z,15.30
2023-10-20T18:03:49.988Z,15.32
2023-10-20T18:06:22.384Z,15.29
2023-10-20T18:08:52.324Z,15.31
2023-10-20T18:11:21.258Z,15.31
2023-10-20T18:13:48.963Z,15.28
2023-10-20T18:16:17.034Z,15.28
2023-10-20T18:18:46.222Z,15.28
2023-10-20T18:21:13.076Z,15.28
2023-10-20T18:23:40.506Z,15.23
2023-10-20T18:26:08.286Z,15.23
2023-10-20T18:28:35.202Z,15.21
2023-10-20T18:31:12.485Z,15.20
2023-10-20T18:33:39.513Z,15.16
2023-10-20T18:36:06.969Z,15.20
2023-10-20T18:38:33.739Z,15.15
2023-10-20T18:41:02.410Z,15.10
2023-10-20T18:43:29.013Z,15.11
2023-10-20T18:45:59.265Z,15.11
2023-10-20T18:48:27.741Z,15.07
2023-10-20T18:51:03.878Z,15.05
2023-10-20T18:53:30.496Z,15.01
2023-10-20T18:55:58.034Z,14.99
2023-10-20T18:58:24.649Z,15.00
2023-10-20T19:00:53.874Z,14.95
2023-10-20T19:03:20.903Z,15.00
2023-10-20T19:05:49.625Z,15.05
2023-10-20T19:08:16.944Z,15.01
2023-10-20T19:10:43.672Z,15.02
2023-10-20T19:13:10.683Z,15.00
2023-10-20T19:15:37.383Z,15.07
2023-10-20T19:18:04.582Z,15.06
2023-10-20T19:20:31.179Z,15.05
2023-10-20T19:22:57.736Z,15.01
2023-10-20T19:25:24.231Z,14.91
2023-10-20T19:27:50.758Z,14.84
2023-10-20T19:30:17.401Z,14.78
2023-10-20T19:32:43.938Z,14.73
2023-10-20T19:35:10.622Z,14.63
2023-10-20T19:37:38.331Z,14.66
2023-10-20T19:40:06.926Z,14.62
2023-10-20T19:42:33.701Z,14.56
2023-10-20T19:45:02.114Z,14.53
2023-10-20T19:47:28.804Z,14.46
2023-10-20T19:49:55.366Z,14.41
2023-10-20T19:52:22.448Z,14.35
2023-10-20T19:54:49.125Z,14.29
2023-10-20T19:57:15.792Z,14.29
2023-10-20T19:59:42.418Z,14.28
2023-10-20T20:02:09.488Z,14.26
2023-10-20T20:04:36.208Z,14.26
2023-10-20T20:07:03.010Z,14.28
2023-10-20T20:09:29.638Z,14.28
2023-10-20T20:11:57.095Z,14.25
2023-10-20T20:14:23.803Z,14.25
2023-10-20T20:16:50.589Z,14.31
2023-10-20T20:19:17.301Z,14.27
2023-10-20T20:21:43.889Z,14.31
2023-10-20T20:24:10.614Z,14.34
2023-10-20T20:26:37.313Z,14.38
2023-10-20T20:29:05.447Z,14.40
2023-10-20T20:31:32.372Z,14.42
2023-10-20T20:33:58.987Z,14.47
2023-10-20T20:36:25.493Z,14.47
2023-10-20T20:38:51.991Z,14.45
2023-10-20T20:41:18.469Z,14.45
2023-10-20T20:43:45.101Z,14.51
2023-10-20T20:46:11.773Z,14.50
2023-10-20T20:48:38.352Z,14.49
2023-10-20T20:51:09.312Z,14.50
2023-10-20T20:53:35.998Z,14.49
2023-10-20T20:56:02.573Z,14.47
2023-10-20T20:58:29.029Z,14.46
2023-10-20T21:00:56.291Z,14.47
2023-10-20T21:03:23.157Z,14.49
2023-10-20T21:06:00.231Z,14.47
2023-10-20T21:08:27.128Z,14.48
2023-10-20T21:10:53.768Z,14.56
2023-10-20T21:13:20.210Z,14.54
2023-10-20T21:15:46.653Z,14.59
2023-10-20T21:18:13.315Z,14.64
2023-10-20T21:20:40.226Z,14.66
2023-10-20T21:23:06.874Z,14.68
2023-10-20T21:25:37.877Z,14.66
2023-10-20T21:28:05.411Z,14.70
2023-10-20T21:30:32.171Z,14.75
2023-10-20T21:32:58.728Z,14.74
2023-10-20T21:35:25.348Z,14.88
2023-10-20T21:37:51.809Z,14.94
2023-10-20T21:40:18.301Z,14.99
2023-10-20T21:42:44.886Z,14.99
2023-10-20T21:45:11.359Z,15.07
2023-10-20T21:47:38.486Z,14.99
2023-10-20T21:50:05.633Z,15.06
2023-10-20T21:52:32.445Z,15.06
2023-10-20T21:54:59.217Z,15.06
2023-10-20T21:57:26.150Z,14.99
2023-10-20T21:59:53.068Z,14.88
2023-10-20T22:02:20.209Z,14.89
2023-10-20T22:04:46.735Z,14.89
2023-10-20T22:07:13.214Z,14.81
2023-10-20T22:09:53.179Z,14.82
2023-10-20T22:12:20.633Z,14.81
2023-10-20T22:14:47.208Z,14.78
2023-10-20T22:17:13.779Z,14.82
2023-10-20T22:19:40.337Z,14.79
2023-10-20T22:22:06.826Z,14.74
2023-10-20T22:24:33.366Z,14.69
2023-10-20T22:27:00.168Z,14.70
2023-10-20T22:29:26.713Z,14.63
2023-10-20T22:31:53.144Z,14.56
2023-10-20T22:34:19.647Z,14.53
2023-10-20T22:36:46.503Z,14.45
2023-10-20T22:39:13.003Z,14.42
2023-10-20T22:41:39.614Z,14.44
2023-10-20T22:44:07.022Z,14.43
2023-10-20T22:46:33.778Z,14.41
2023-10-20T22:49:00.391Z,14.42
2023-10-20T22:51:26.965Z,14.43
2023-10-20T22:53:53.576Z,14.40
2023-10-20T22:56:20.144Z,14.38
2023-10-20T22:58:46.749Z,14.32
2023-10-20T23:01:13.368Z,14.33
2023-10-20T23:03:39.932Z,14.26
2023-10-20T23:06:06.639Z,14.27
2023-10-20T23:08:34.278Z,14.31
2023-10-20T23:11:00.748Z,14.37
2023-10-20T23:13:27.250Z,14.39
2023-10-20T23:15:53.692Z,14.39
2023-10-20T23:18:20.402Z,14.57
2023-10-20T23:20:47.147Z,14.56
2023-10-20T23:23:13.745Z,14.56
2023-10-20T23:25:40.628Z,14.66
2023-10-20T23:28:07.150Z,14.70
2023-10-20T23:30:33.751Z,14.83
2023-10-20T23:33:00.376Z,15.00
2023-10-20T23:35:27.311Z,15.08
2023-10-20T23:37:54.003Z,15.12
2023-10-20T23:40:20.547Z,15.22
2023-10-20T23:42:47.192Z,15.21
2023-10-20T23:45:13.895Z,15.18
2023-10-20T23:47:40.581Z,15.22
2023-10-20T23:50:07.588Z,15.41
2023-10-20T23:52:34.204Z,15.44
2023-10-20T23:55:00.832Z,15.52
2023-10-20T23:57:27.330Z,15.65
2023-10-20T23:59:53.985Z,15.60
